sensor_id;sensor_type;location;lat;lon;timestamp;pressure;altitude;pressure_sealevel;temperature;humidity
20612;BME280;10465;42.686;23.364;2022-08-19T00:01:25;94732.88;;;26.05;49.67
20612;BME280;10465;42.686;23.364;2022-08-19T00:03:51;94716.50;;;25.85;49.88
20612;BME280;10465;42.686;23.364;2022-08-19T00:06:17;94745.81;;;25.94;49.96
20612;BME280;10465;42.686;23.364;2022-08-19T00:08:42;94730.09;;;25.81;50.32
20612;BME280;10465;42.686;23.364;2022-08-19T00:11:09;94748.13;;;25.95;49.77
20612;BME280;10465;42.686;23.364;2022-08-19T00:13:34;94730.84;;;25.82;50.12
20612;BME280;10465;42.686;23.364;2022-08-19T00:16:00;94743.19;;;25.86;50.48
20612;BME280;10465;42.686;23.364;2022-08-19T00:18:26;94732.84;;;25.74;50.32
20612;BME280;10465;42.686;23.364;2022-08-19T00:20:52;94753.28;;;25.86;50.33
20612;BME280;10465;42.686;23.364;2022-08-19T00:23:17;94743.69;;;25.78;50.31
20612;BME280;10465;42.686;23.364;2022-08-19T00:25:44;94736.81;;;25.66;50.92
20612;BME280;10465;42.686;23.364;2022-08-19T00:28:09;94762.00;;;25.63;51.10
20612;BME280;10465;42.686;23.364;2022-08-19T00:30:35;94743.59;;;25.47;51.35
20612;BME280;10465;42.686;23.364;2022-08-19T00:33:00;94740.53;;;25.45;51.66
20612;BME280;10465;42.686;23.364;2022-08-19T00:35:26;94756.00;;;25.48;51.84
20612;BME280;10465;42.686;23.364;2022-08-19T00:37:53;94725.66;;;25.23;52.13
20612;BME280;10465;42.686;23.364;2022-08-19T00:40:21;94746.47;;;25.33;52.26
20612;BME280;10465;42.686;23.364;2022-08-19T00:42:47;94748.44;;;25.29;52.36
20612;BME280;10465;42.686;23.364;2022-08-19T00:45:21;94732.75;;;25.09;53.06
20612;BME280;10465;42.686;23.364;2022-08-19T00:47:47;94742.78;;;25.12;53.15
20612;BME280;10465;42.686;23.364;2022-08-19T00:50:14;94728.53;;;25.01;53.58
20612;BME280;10465;42.686;23.364;2022-08-19T00:52:43;94744.34;;;25.10;53.65
20612;BME280;10465;42.686;23.364;2022-08-19T00:55:20;94733.94;;;25.05;53.71
20612;BME280;10465;42.686;23.364;2022-08-19T00:57:54;94750.56;;;25.03;53.50
20612;BME280;10465;42.686;23.364;2022-08-19T01:00:22;94750.97;;;25.02;53.69
20612;BME280;10465;42.686;23.364;2022-08-19T01:02:48;94750.56;;;25.03;53.81
20612;BME280;10465;42.686;23.364;2022-08-19T01:05:16;94742.88;;;24.98;53.52
20612;BME280;10465;42.686;23.364;2022-08-19T01:07:44;94752.59;;;24.96;53.74
20612;BME280;10465;42.686;23.364;2022-08-19T01:10:13;94742.66;;;24.78;54.13
20612;BME280;10465;42.686;23.364;2022-08-19T01:12:40;94748.00;;;24.85;54.34
20612;BME280;10465;42.686;23.364;2022-08-19T01:15:09;94746.13;;;24.79;54.42
20612;BME280;10465;42.686;23.364;2022-08-19T01:17:36;94754.19;;;24.86;54.23
20612;BME280;10465;42.686;23.364;2022-08-19T01:20:05;94749.25;;;24.77;54.49
20612;BME280;10465;42.686;23.364;2022-08-19T01:22:46;94756.25;;;24.71;54.88
20612;BME280;10465;42.686;23.364;2022-08-19T01:25:13;94756.25;;;24.71;55.15
20612;BME280;10465;42.686;23.364;2022-08-19T01:27:43;94744.31;;;24.65;55.44
20612;BME280;10465;42.686;23.364;2022-08-19T01:30:14;94749.69;;;24.69;54.95
20612;BME280;10465;42.686;23.364;2022-08-19T01:32:40;94753.66;;;24.57;55.50
20612;BME280;10465;42.686;23.364;2022-08-19T01:35:06;94728.63;;;24.42;55.82
20612;BME280;10465;42.686;23.364;2022-08-19T01:37:42;94698.97;;;24.24;55.58
20612;BME280;10465;42.686;23.364;2022-08-19T01:40:09;94742.81;;;24.60;55.45
20612;BME280;10465;42.686;23.364;2022-08-19T01:42:35;94743.59;;;24.57;54.44
20612;BME280;10465;42.686;23.364;2022-08-19T01:45:01;94683.97;;;24.09;54.08
20612;BME280;10465;42.686;23.364;2022-08-19T01:47:27;94720.94;;;24.30;54.33
20612;BME280;10465;42.686;23.364;2022-08-19T01:49:53;94695.13;;;24.14;55.07
20612;BME280;10465;42.686;23.364;2022-08-19T01:52:18;94732.47;;;24.45;54.77
20612;BME280;10465;42.686;23.364;2022-08-19T01:54:44;94751.28;;;24.59;54.00
20612;BME280;10465;42.686;23.364;2022-08-19T01:57:12;94744.00;;;24.56;54.31
20612;BME280;10465;42.686;23.364;2022-08-19T01:59:40;94744.66;;;24.67;55.20
20612;BME280;10465;42.686;23.364;2022-08-19T02:02:06;94756.31;;;24.64;55.29
20612;BME280;10465;42.686;23.364;2022-08-19T02:04:33;94728.59;;;24.46;55.31
20612;BME280;10465;42.686;23.364;2022-08-19T02:06:59;94748.72;;;24.41;55.07
20612;BME280;10465;42.686;23.364;2022-08-19T02:09:24;94753.66;;;24.57;55.32
20612;BME280;10465;42.686;23.364;2022-08-19T02:11:50;94750.94;;;24.57;54.86
20612;BME280;10465;42.686;23.364;2022-08-19T02:14:15;94751.69;;;24.61;55.27
20612;BME280;10465;42.686;23.364;2022-08-19T02:16:41;94750.16;;;24.60;55.72
20612;BME280;10465;42.686;23.364;2022-08-19T02:19:06;94750.97;;;24.53;55.78
20612;BME280;10465;42.686;23.364;2022-08-19T02:21:32;94754.41;;;24.57;55.91
20612;BME280;10465;42.686;23.364;2022-08-19T02:23:58;94750.94;;;24.57;55.39
20612;BME280;10465;42.686;23.364;2022-08-19T02:26:25;94753.25;;;24.55;55.24
20612;BME280;10465;42.686;23.364;2022-08-19T02:28:52;94724.03;;;24.28;55.43
20612;BME280;10465;42.686;23.364;2022-08-19T02:31:20;94734.88;;;24.28;55.48
20612;BME280;10465;42.686;23.364;2022-08-19T02:33:47;94748.06;;;24.19;56.14
20612;BME280;10465;42.686;23.364;2022-08-19T02:36:14;94754.16;;;24.30;56.21
20612;BME280;10465;42.686;23.364;2022-08-19T02:38:40;94754.16;;;24.30;56.38
20612;BME280;10465;42.686;23.364;2022-08-19T02:41:30;94756.56;;;24.17;56.46
20612;BME280;10465;42.686;23.364;2022-08-19T02:43:58;94758.91;;;24.08;56.57
20612;BME280;10465;42.686;23.364;2022-08-19T02:46:26;94764.34;;;24.08;56.74
20612;BME280;10465;42.686;23.364;2022-08-19T02:48:54;94755.06;;;24.06;56.54
20612;BME280;10465;42.686;23.364;2022-08-19T02:51:33;94763.16;;;24.06;56.44
20612;BME280;10465;42.686;23.364;2022-08-19T02:53:59;94769.00;;;23.97;57.33
20612;BME280;10465;42.686;23.364;2022-08-19T02:56:25;94738.19;;;23.77;57.23
20612;BME280;10465;42.686;23.364;2022-08-19T02:58:54;94766.38;;;23.79;57.40
20612;BME280;10465;42.686;23.364;2022-08-19T03:01:31;94774.47;;;23.86;56.98
20612;BME280;10465;42.686;23.364;2022-08-19T03:03:59;94761.75;;;23.80;56.89
20612;BME280;10465;42.686;23.364;2022-08-19T03:06:26;94746.72;;;23.68;57.61
20612;BME280;10465;42.686;23.364;2022-08-19T03:08:52;94762.16;;;23.78;57.48
20612;BME280;10465;42.686;23.364;2022-08-19T03:13:43;94754.84;;;23.68;57.87
20612;BME280;10465;42.686;23.364;2022-08-19T03:16:09;94759.06;;;23.73;57.80
20612;BME280;10465;42.686;23.364;2022-08-19T03:18:35;94760.22;;;23.64;57.57
20612;BME280;10465;42.686;23.364;2022-08-19T03:21:01;94754.84;;;23.57;57.21
20612;BME280;10465;42.686;23.364;2022-08-19T03:23:26;94742.50;;;23.53;57.37
20612;BME280;10465;42.686;23.364;2022-08-19T03:25:52;94753.31;;;23.67;57.51
20612;BME280;10465;42.686;23.364;2022-08-19T03:28:19;94752.91;;;23.72;57.97
20612;BME280;10465;42.686;23.364;2022-08-19T03:30:55;94762.94;;;23.75;58.25
20612;BME280;10465;42.686;23.364;2022-08-19T03:33:22;94756.78;;;23.67;58.40
20612;BME280;10465;42.686;23.364;2022-08-19T03:36:00;94762.16;;;23.71;58.80
20612;BME280;10465;42.686;23.364;2022-08-19T03:38:25;94765.28;;;23.66;58.77
20612;BME280;10465;42.686;23.364;2022-08-19T03:40:51;94753.31;;;23.45;59.14
20612;BME280;10465;42.686;23.364;2022-08-19T03:43:16;94757.19;;;23.41;59.36
20612;BME280;10465;42.686;23.364;2022-08-19T03:45:43;94765.28;;;23.41;59.53
20612;BME280;10465;42.686;23.364;2022-08-19T03:48:08;94732.53;;;23.21;59.31
20612;BME280;10465;42.686;23.364;2022-08-19T03:50:39;94776.91;;;23.38;59.59
20612;BME280;10465;42.686;23.364;2022-08-19T03:53:04;94784.59;;;23.43;59.83
20612;BME280;10465;42.686;23.364;2022-08-19T03:55:30;94785.38;;;23.40;59.91
20612;BME280;10465;42.686;23.364;2022-08-19T03:57:55;94787.31;;;23.43;60.07
20612;BME280;10465;42.686;23.364;2022-08-19T04:00:21;94790.38;;;23.45;59.84
20612;BME280;10465;42.686;23.364;2022-08-19T04:02:47;94771.88;;;23.29;60.13
20612;BME280;10465;42.686;23.364;2022-08-19T04:05:12;94758.41;;;23.18;60.00
20612;BME280;10465;42.686;23.364;2022-08-19T04:07:39;94786.16;;;23.33;60.26
20612;BME280;10465;42.686;23.364;2022-08-19T04:10:05;94746.84;;;23.11;60.49
20612;BME280;10465;42.686;23.364;2022-08-19T04:12:30;94793.47;;;23.47;60.21
20612;BME280;10465;42.686;23.364;2022-08-19T04:14:56;94790.38;;;23.49;59.61
20612;BME280;10465;42.686;23.364;2022-08-19T04:17:21;94800.00;;;23.53;59.81
20612;BME280;10465;42.686;23.364;2022-08-19T04:19:47;94785.78;;;23.42;59.93
20612;BME280;10465;42.686;23.364;2022-08-19T04:22:12;94804.63;;;23.49;60.12
20612;BME280;10465;42.686;23.364;2022-08-19T04:24:38;94793.06;;;23.41;60.16
20612;BME280;10465;42.686;23.364;2022-08-19T04:27:04;94802.69;;;23.53;59.92
20612;BME280;10465;42.686;23.364;2022-08-19T04:29:30;94797.69;;;23.52;59.78
20612;BME280;10465;42.686;23.364;2022-08-19T04:31:56;94812.38;;;23.51;60.14
20612;BME280;10465;42.686;23.364;2022-08-19T04:34:25;94808.50;;;23.55;59.99
20612;BME280;10465;42.686;23.364;2022-08-19T04:36:52;94803.09;;;23.55;60.03
20612;BME280;10465;42.686;23.364;2022-08-19T04:39:22;94814.69;;;23.70;59.51
20612;BME280;10465;42.686;23.364;2022-08-19T04:42:08;94799.22;;;23.56;59.08
20612;BME280;10465;42.686;23.364;2022-08-19T04:44:52;94794.97;;;23.62;58.79
20612;BME280;10465;42.686;23.364;2022-08-19T04:47:17;94772.63;;;23.51;58.65
20612;BME280;10465;42.686;23.364;2022-08-19T04:49:43;94803.47;;;23.75;58.47
20612;BME280;10465;42.686;23.364;2022-08-19T04:52:08;94812.00;;;23.66;58.84
20612;BME280;10465;42.686;23.364;2022-08-19T04:54:34;94808.13;;;23.67;58.75
20612;BME280;10465;42.686;23.364;2022-08-19T04:56:59;94805.41;;;23.78;58.31
20612;BME280;10465;42.686;23.364;2022-08-19T04:59:25;94812.34;;;23.79;58.22
20612;BME280;10465;42.686;23.364;2022-08-19T05:01:50;94817.69;;;23.90;57.94
20612;BME280;10465;42.686;23.364;2022-08-19T05:04:22;94820.78;;;23.99;58.01
20612;BME280;10465;42.686;23.364;2022-08-19T05:07:18;94796.47;;;23.92;57.36
20612;BME280;10465;42.686;23.364;2022-08-19T05:09:43;94773.31;;;23.84;57.46
20612;BME280;10465;42.686;23.364;2022-08-19T05:12:09;94823.78;;;24.19;57.56
20612;BME280;10465;42.686;23.364;2022-08-19T05:14:34;94817.97;;;24.24;57.18
20612;BME280;10465;42.686;23.364;2022-08-19T05:17:01;94805.97;;;24.25;57.58
20612;BME280;10465;42.686;23.364;2022-08-19T05:19:27;94802.50;;;24.25;57.60
20612;BME280;10465;42.686;23.364;2022-08-19T05:22:11;94807.47;;;24.40;57.12
20612;BME280;10465;42.686;23.364;2022-08-19T05:24:55;94791.22;;;24.37;56.54
20612;BME280;10465;42.686;23.364;2022-08-19T05:27:21;94812.88;;;24.44;56.62
20612;BME280;10465;42.686;23.364;2022-08-19T05:29:46;94812.88;;;24.40;56.82
20612;BME280;10465;42.686;23.364;2022-08-19T05:32:12;94820.13;;;24.58;56.60
20612;BME280;10465;42.686;23.364;2022-08-19T05:34:38;94822.03;;;24.64;56.04
20612;BME280;10465;42.686;23.364;2022-08-19T05:37:04;94808.50;;;24.64;55.86
20612;BME280;10465;42.686;23.364;2022-08-19T05:39:32;94802.63;;;24.73;55.81
20612;BME280;10465;42.686;23.364;2022-08-19T05:42:01;94827.31;;;24.82;55.66
20612;BME280;10465;42.686;23.364;2022-08-19T05:44:31;94823.38;;;24.90;55.17
20612;BME280;10465;42.686;23.364;2022-08-19T05:47:00;94801.00;;;24.83;54.82
20612;BME280;10465;42.686;23.364;2022-08-19T05:49:34;94826.81;;;25.02;55.01
20612;BME280;10465;42.686;23.364;2022-08-19T05:52:03;94814.81;;;24.99;54.55
20612;BME280;10465;42.686;23.364;2022-08-19T05:54:29;94812.81;;;25.07;54.51
20612;BME280;10465;42.686;23.364;2022-08-19T05:56:55;94826.38;;;25.07;54.75
20612;BME280;10465;42.686;23.364;2022-08-19T05:59:21;94824.41;;;25.07;54.99
20612;BME280;10465;42.686;23.364;2022-08-19T06:01:48;94822.13;;;25.09;55.62
20612;BME280;10465;42.686;23.364;2022-08-19T06:04:18;94824.34;;;25.22;55.15
20612;BME280;10465;42.686;23.364;2022-08-19T06:06:48;94812.38;;;25.19;55.05
20612;BME280;10465;42.686;23.364;2022-08-19T06:09:15;94819.28;;;25.24;55.09
20612;BME280;10465;42.686;23.364;2022-08-19T06:11:53;94821.16;;;25.34;54.81
20612;BME280;10465;42.686;23.364;2022-08-19T06:14:22;94829.31;;;25.30;54.03
20612;BME280;10465;42.686;23.364;2022-08-19T06:16:49;94818.78;;;25.36;54.23
20612;BME280;10465;42.686;23.364;2022-08-19T06:19:18;94810.41;;;25.23;54.38
20612;BME280;10465;42.686;23.364;2022-08-19T06:21:46;94808.41;;;25.31;54.00
20612;BME280;10465;42.686;23.364;2022-08-19T06:24:16;94832.66;;;25.45;54.00
20612;BME280;10465;42.686;23.364;2022-08-19T06:26:44;94829.50;;;25.54;53.87
20612;BME280;10465;42.686;23.364;2022-08-19T06:29:12;94819.41;;;25.54;53.82
20612;BME280;10465;42.686;23.364;2022-08-19T06:31:45;94828.97;;;25.66;53.43
20612;BME280;10465;42.686;23.364;2022-08-19T06:34:12;94828.94;;;25.70;53.03
20612;BME280;10465;42.686;23.364;2022-08-19T06:36:43;94830.78;;;25.76;53.03
20612;BME280;10465;42.686;23.364;2022-08-19T06:39:18;94833.50;;;25.80;52.74
20612;BME280;10465;42.686;23.364;2022-08-19T06:41:46;94814.94;;;25.78;52.26
20612;BME280;10465;42.686;23.364;2022-08-19T06:44:12;94818.28;;;25.93;51.49
20612;BME280;10465;42.686;23.364;2022-08-19T06:46:40;94826.69;;;26.02;51.23
20612;BME280;10465;42.686;23.364;2022-08-19T06:49:06;94804.38;;;25.87;51.97
20612;BME280;10465;42.686;23.364;2022-08-19T06:51:34;94805.84;;;25.96;51.96
20612;BME280;10465;42.686;23.364;2022-08-19T06:53:59;94810.72;;;26.08;51.35
20612;BME280;10465;42.686;23.364;2022-08-19T06:56:28;94828.78;;;26.22;51.31
20612;BME280;10465;42.686;23.364;2022-08-19T06:58:57;94834.91;;;26.29;50.64
20612;BME280;10465;42.686;23.364;2022-08-19T07:01:23;94832.03;;;26.40;50.10
20612;BME280;10465;42.686;23.364;2022-08-19T07:03:49;94835.47;;;26.44;50.19
20612;BME280;10465;42.686;23.364;2022-08-19T07:06:17;94844.06;;;26.39;50.62
20612;BME280;10465;42.686;23.364;2022-08-19T07:08:44;94838.66;;;26.39;50.59
20612;BME280;10465;42.686;23.364;2022-08-19T07:11:11;94848.22;;;26.51;50.66
20612;BME280;10465;42.686;23.364;2022-08-19T07:13:38;94845.34;;;26.61;50.59
20612;BME280;10465;42.686;23.364;2022-08-19T07:16:08;94835.22;;;26.66;50.64
20612;BME280;10465;42.686;23.364;2022-08-19T07:18:34;94823.97;;;26.67;50.72
20612;BME280;10465;42.686;23.364;2022-08-19T07:21:09;94845.78;;;26.87;49.46
20612;BME280;10465;42.686;23.364;2022-08-19T07:23:36;94824.53;;;26.82;49.80
20612;BME280;10465;42.686;23.364;2022-08-19T07:26:10;94819.28;;;26.95;49.48
20612;BME280;10465;42.686;23.364;2022-08-19T07:28:36;94824.25;;;27.00;49.20
20612;BME280;10465;42.686;23.364;2022-08-19T07:31:12;94829.09;;;27.16;49.25
20612;BME280;10465;42.686;23.364;2022-08-19T07:33:39;94825.34;;;27.29;48.79
20612;BME280;10465;42.686;23.364;2022-08-19T07:36:06;94824.38;;;27.43;47.91
20612;BME280;10465;42.686;23.364;2022-08-19T07:38:33;94826.66;;;27.45;47.68
20612;BME280;10465;42.686;23.364;2022-08-19T07:40:59;94824.66;;;27.49;47.66
20612;BME280;10465;42.686;23.364;2022-08-19T07:43:24;94783.34;;;27.34;48.19
20612;BME280;10465;42.686;23.364;2022-08-19T07:45:52;94817.78;;;27.64;48.24
20612;BME280;10465;42.686;23.364;2022-08-19T07:48:25;94815.53;;;27.82;47.59
20612;BME280;10465;42.686;23.364;2022-08-19T07:50:56;94824.19;;;27.97;47.55
20612;BME280;10465;42.686;23.364;2022-08-19T07:53:23;94824.25;;;28.14;47.36
20612;BME280;10465;42.686;23.364;2022-08-19T07:55:50;94830.03;;;28.35;47.26
20612;BME280;10465;42.686;23.364;2022-08-19T07:58:19;94832.50;;;28.50;45.51
20612;BME280;10465;42.686;23.364;2022-08-19T08:00:47;94830.88;;;28.52;45.12
20612;BME280;10465;42.686;23.364;2022-08-19T08:03:14;94825.34;;;28.56;44.84
20612;BME280;10465;42.686;23.364;2022-08-19T08:05:40;94822.47;;;28.63;44.09
20612;BME280;10465;42.686;23.364;2022-08-19T08:08:24;94829.66;;;28.73;44.18
20612;BME280;10465;42.686;23.364;2022-08-19T08:11:08;94834.25;;;28.76;43.74
20612;BME280;10465;42.686;23.364;2022-08-19T08:13:34;94833.47;;;28.76;43.58
20612;BME280;10465;42.686;23.364;2022-08-19T08:16:02;94809.28;;;28.62;43.36
20612;BME280;10465;42.686;23.364;2022-08-19T08:18:28;94821.41;;;28.77;43.13
20612;BME280;10465;42.686;23.364;2022-08-19T08:20:54;94817.50;;;28.94;43.02
20612;BME280;10465;42.686;23.364;2022-08-19T08:23:20;94804.25;;;29.13;43.07
20612;BME280;10465;42.686;23.364;2022-08-19T08:25:50;94815.63;;;29.40;42.70
20612;BME280;10465;42.686;23.364;2022-08-19T08:28:17;94813.19;;;29.46;42.38
20612;BME280;10465;42.686;23.364;2022-08-19T08:30:44;94813.94;;;29.63;41.20
20612;BME280;10465;42.686;23.364;2022-08-19T08:33:11;94810.75;;;29.80;40.97
20612;BME280;10465;42.686;23.364;2022-08-19T08:35:36;94801.63;;;30.00;40.08
20612;BME280;10465;42.686;23.364;2022-08-19T08:38:03;94799.78;;;29.97;39.19
20612;BME280;10465;42.686;23.364;2022-08-19T08:43:24;94802.97;;;30.08;38.33
20612;BME280;10465;42.686;23.364;2022-08-19T08:45:56;94803.47;;;30.19;38.15
20612;BME280;10465;42.686;23.364;2022-08-19T08:50:56;94794.34;;;30.51;37.81
20612;BME280;10465;42.686;23.364;2022-08-19T08:53:24;94794.66;;;30.53;36.73
20612;BME280;10465;42.686;23.364;2022-08-19T08:55:50;94789.97;;;30.67;36.32
20612;BME280;10465;42.686;23.364;2022-08-19T08:58:24;94775.59;;;30.79;35.84
20612;BME280;10465;42.686;23.364;2022-08-19T09:00:51;94790.31;;;30.94;36.42
20612;BME280;10465;42.686;23.364;2022-08-19T09:03:24;94781.03;;;31.05;35.90
20612;BME280;10465;42.686;23.364;2022-08-19T09:06:02;94771.81;;;31.11;35.27
20612;BME280;10465;42.686;23.364;2022-08-19T09:09:04;94768.28;;;31.23;35.07
20612;BME280;10465;42.686;23.364;2022-08-19T09:16:46;94774.97;;;31.70;34.79
20612;BME280;10465;42.686;23.364;2022-08-19T09:19:14;94769.44;;;31.83;32.93
20612;BME280;10465;42.686;23.364;2022-08-19T09:21:42;94734.94;;;31.63;32.33
20612;BME280;10465;42.686;23.364;2022-08-19T09:24:08;94769.44;;;31.83;32.73
20612;BME280;10465;42.686;23.364;2022-08-19T09:26:33;94749.31;;;31.89;32.83
20612;BME280;10465;42.686;23.364;2022-08-19T09:29:00;94750.00;;;32.03;32.11
20612;BME280;10465;42.686;23.364;2022-08-19T09:31:29;94744.38;;;32.06;32.08
20612;BME280;10465;42.686;23.364;2022-08-19T09:33:55;94730.69;;;32.06;31.86
20612;BME280;10465;42.686;23.364;2022-08-19T09:36:25;94758.09;;;32.37;31.33
20612;BME280;10465;42.686;23.364;2022-08-19T09:38:52;94751.00;;;32.49;29.81
20612;BME280;10465;42.686;23.364;2022-08-19T09:41:20;94753.81;;;32.58;28.85
20612;BME280;10465;42.686;23.364;2022-08-19T09:43:48;94737.50;;;32.55;28.25
20612;BME280;10465;42.686;23.364;2022-08-19T09:46:18;94755.53;;;32.74;28.60
20612;BME280;10465;42.686;23.364;2022-08-19T09:48:47;94748.97;;;32.71;28.70
20612;BME280;10465;42.686;23.364;2022-08-19T09:51:16;94756.31;;;32.84;28.46
20612;BME280;10465;42.686;23.364;2022-08-19T09:53:44;94756.94;;;32.88;28.49
20612;BME280;10465;42.686;23.364;2022-08-19T09:56:11;94750.94;;;33.02;28.19
20612;BME280;10465;42.686;23.364;2022-08-19T09:58:37;94749.38;;;33.01;27.38
20612;BME280;10465;42.686;23.364;2022-08-19T10:01:05;94730.16;;;32.92;27.48
20612;BME280;10465;42.686;23.364;2022-08-19T10:03:32;94740.28;;;33.13;27.33
20612;BME280;10465;42.686;23.364;2022-08-19T10:06:03;94722.63;;;33.14;27.87
20612;BME280;10465;42.686;23.364;2022-08-19T10:08:31;94734.66;;;33.26;27.31
20612;BME280;10465;42.686;23.364;2022-08-19T10:10:58;94732.53;;;33.39;27.17
20612;BME280;10465;42.686;23.364;2022-08-19T10:13:27;94718.34;;;33.32;27.05
20612;BME280;10465;42.686;23.364;2022-08-19T10:15:54;94722.06;;;33.47;27.69
20612;BME280;10465;42.686;23.364;2022-08-19T10:18:22;94705.88;;;33.40;27.86
20612;BME280;10465;42.686;23.364;2022-08-19T10:20:49;94713.34;;;33.76;28.34
20612;BME280;10465;42.686;23.364;2022-08-19T10:23:16;94724.47;;;33.72;27.51
20612;BME280;10465;42.686;23.364;2022-08-19T10:25:42;94704.66;;;33.68;27.50
20612;BME280;10465;42.686;23.364;2022-08-19T10:28:08;94719.28;;;33.75;27.27
20612;BME280;10465;42.686;23.364;2022-08-19T10:30:38;94711.94;;;33.90;27.30
20612;BME280;10465;42.686;23.364;2022-08-19T10:33:04;94713.16;;;33.98;27.33
20612;BME280;10465;42.686;23.364;2022-08-19T10:35:30;94704.75;;;34.11;27.14
20612;BME280;10465;42.686;23.364;2022-08-19T10:37:56;94706.72;;;34.19;27.42
20612;BME280;10465;42.686;23.364;2022-08-19T10:40:26;94701.53;;;34.22;27.16
20612;BME280;10465;42.686;23.364;2022-08-19T10:42:52;94688.69;;;34.28;26.84
20612;BME280;10465;42.686;23.364;2022-08-19T10:45:18;94690.91;;;34.38;26.88
20612;BME280;10465;42.686;23.364;2022-08-19T10:47:44;94673.25;;;34.30;27.31
20612;BME280;10465;42.686;23.364;2022-08-19T10:50:09;94671.09;;;34.34;27.15
20612;BME280;10465;42.686;23.364;2022-08-19T10:52:53;94699.47;;;34.50;26.85
20612;BME280;10465;42.686;23.364;2022-08-19T10:55:21;94693.78;;;34.53;27.01
20612;BME280;10465;42.686;23.364;2022-08-19T10:58:17;94676.91;;;34.27;26.85
20612;BME280;10465;42.686;23.364;2022-08-19T11:00:43;94674.59;;;34.35;26.62
20612;BME280;10465;42.686;23.364;2022-08-19T11:03:15;94690.72;;;34.60;26.48
20612;BME280;10465;42.686;23.364;2022-08-19T11:05:41;94667.25;;;34.50;26.65
20612;BME280;10465;42.686;23.364;2022-08-19T11:08:08;94693.28;;;34.64;26.45
20612;BME280;10465;42.686;23.364;2022-08-19T11:10:40;94684.34;;;34.78;27.28
20612;BME280;10465;42.686;23.364;2022-08-19T11:13:06;94664.00;;;34.85;27.19
20612;BME280;10465;42.686;23.364;2022-08-19T11:15:31;94684.03;;;35.09;25.98
20612;BME280;10465;42.686;23.364;2022-08-19T11:17:57;94691.44;;;34.94;26.02
20612;BME280;10465;42.686;23.364;2022-08-19T11:20:23;94683.16;;;35.03;26.04
20612;BME280;10465;42.686;23.364;2022-08-19T11:22:51;94673.88;;;35.15;26.34
20612;BME280;10465;42.686;23.364;2022-08-19T11:25:17;94681.44;;;35.30;26.59
20612;BME280;10465;42.686;23.364;2022-08-19T11:27:43;94637.09;;;35.13;26.45
20612;BME280;10465;42.686;23.364;2022-08-19T11:30:12;94656.59;;;35.39;26.56
20612;BME280;10465;42.686;23.364;2022-08-19T11:32:37;94671.56;;;35.62;26.38
20612;BME280;10465;42.686;23.364;2022-08-19T11:35:03;94672.59;;;35.64;26.27
20612;BME280;10465;42.686;23.364;2022-08-19T11:37:29;94630.56;;;35.40;26.57
20612;BME280;10465;42.686;23.364;2022-08-19T11:39:54;94654.34;;;35.52;25.83
20612;BME280;10465;42.686;23.364;2022-08-19T11:42:20;94646.84;;;35.53;25.71
20612;BME280;10465;42.686;23.364;2022-08-19T11:45:04;94658.81;;;35.64;26.21
20612;BME280;10465;42.686;23.364;2022-08-19T11:47:30;94649.53;;;35.77;26.24
20612;BME280;10465;42.686;23.364;2022-08-19T11:49:56;94630.25;;;35.77;25.07
20612;BME280;10465;42.686;23.364;2022-08-19T11:52:22;94640.97;;;35.89;25.29
20612;BME280;10465;42.686;23.364;2022-08-19T11:54:47;94652.97;;;35.86;25.81
20612;BME280;10465;42.686;23.364;2022-08-19T11:57:13;94646.03;;;35.91;26.28
20612;BME280;10465;42.686;23.364;2022-08-19T11:59:42;94651.25;;;36.04;26.51
20612;BME280;10465;42.686;23.364;2022-08-19T12:02:07;94649.00;;;36.02;25.54
20612;BME280;10465;42.686;23.364;2022-08-19T12:04:33;94643.53;;;35.93;25.02
20612;BME280;10465;42.686;23.364;2022-08-19T12:06:58;94639.38;;;35.83;25.25
20612;BME280;10465;42.686;23.364;2022-08-19T12:09:24;94637.28;;;35.92;25.12
20612;BME280;10465;42.686;23.364;2022-08-19T12:11:49;94624.19;;;35.87;24.73
20612;BME280;10465;42.686;23.364;2022-08-19T12:14:15;94629.56;;;35.97;24.93
20612;BME280;10465;42.686;23.364;2022-08-19T12:16:43;94627.22;;;36.04;24.75
20612;BME280;10465;42.686;23.364;2022-08-19T12:19:10;94624.56;;;36.10;24.56
20612;BME280;10465;42.686;23.364;2022-08-19T12:21:36;94623.69;;;36.19;25.07
20612;BME280;10465;42.686;23.364;2022-08-19T12:24:03;94616.63;;;36.32;25.08
20612;BME280;10465;42.686;23.364;2022-08-19T12:26:30;94609.66;;;36.37;25.25
20612;BME280;10465;42.686;23.364;2022-08-19T12:28:57;94616.63;;;36.47;25.21
20612;BME280;10465;42.686;23.364;2022-08-19T12:31:25;94594.94;;;36.55;24.84
20612;BME280;10465;42.686;23.364;2022-08-19T12:33:51;94592.06;;;36.49;24.90
20612;BME280;10465;42.686;23.364;2022-08-19T12:36:18;94608.06;;;36.66;24.31
20612;BME280;10465;42.686;23.364;2022-08-19T12:38:43;94600.84;;;36.48;24.08
20612;BME280;10465;42.686;23.364;2022-08-19T12:41:13;94603.69;;;36.38;24.54
20612;BME280;10465;42.686;23.364;2022-08-19T12:43:39;94586.81;;;36.31;24.58
20612;BME280;10465;42.686;23.364;2022-08-19T12:46:06;94576.53;;;36.31;24.77
20612;BME280;10465;42.686;23.364;2022-08-19T12:48:33;94584.09;;;36.51;25.26
20612;BME280;10465;42.686;23.364;2022-08-19T12:50:59;94588.44;;;36.58;25.04
20612;BME280;10465;42.686;23.364;2022-08-19T12:53:25;94593.88;;;36.52;24.43
20612;BME280;10465;42.686;23.364;2022-08-19T12:55:58;94587.81;;;36.48;24.42
20612;BME280;10465;42.686;23.364;2022-08-19T12:58:25;94583.53;;;36.47;24.19
20612;BME280;10465;42.686;23.364;2022-08-19T13:00:51;94595.84;;;36.67;24.80
20612;BME280;10465;42.686;23.364;2022-08-19T13:03:16;94583.91;;;36.75;24.47
20612;BME280;10465;42.686;23.364;2022-08-19T13:05:42;94577.53;;;36.69;24.46
20612;BME280;10465;42.686;23.364;2022-08-19T13:08:07;94580.09;;;36.73;24.86